createdAt,value
2018-04-23T00:00:01.027Z,1012.21
2018-04-23T00:01:28.370Z,1012.23
2018-04-23T00:02:55.891Z,1012.26
2018-04-23T00:04:23.195Z,1012.27
2018-04-23T00:05:50.503Z,1012.27
2018-04-23T00:07:18.074Z,1012.26
2018-04-23T00:08:45.476Z,1012.21
2018-04-23T00:10:12.513Z,1012.24
2018-04-23T00:11:39.924Z,1012.23
2018-04-23T00:13:07.485Z,1012.22
2018-04-23T00:14:34.552Z,1012.21
2018-04-23T00:16:01.781Z,1012.22
2018-04-23T00:17:29.216Z,1012.14
2018-04-23T00:18:56.635Z,1012.17
2018-04-23T00:20:24.051Z,1012.16
2018-04-23T00:21:51.199Z,1012.17
2018-04-23T00:23:18.449Z,1012.17
2018-04-23T00:24:45.673Z,1012.13
2018-04-23T00:26:12.630Z,1012.09
2018-04-23T00:27:40.107Z,1012.04
2018-04-23T00:29:07.615Z,1012.03
2018-04-23T00:30:34.989Z,1011.97
2018-04-23T00:32:02.230Z,1011.95
2018-04-23T00:33:29.794Z,1011.90
2018-04-23T00:34:57.104Z,1011.90
2018-04-23T00:36:24.380Z,1011.89
2018-04-23T00:37:51.739Z,1011.80
2018-04-23T00:39:18.994Z,1011.74
2018-04-23T00:40:46.461Z,1011.68
2018-04-23T00:42:13.680Z,1011.61
2018-04-23T00:43:41.206Z,1011.55
2018-04-23T00:45:08.422Z,1011.55
2018-04-23T00:46:35.922Z,1011.56
2018-04-23T00:48:03.467Z,1011.55
2018-04-23T00:49:31.050Z,1011.56
2018-04-23T00:50:58.492Z,1011.51
2018-04-23T00:52:25.748Z,1011.46
2018-04-23T00:53:53.121Z,1011.41
2018-04-23T00:55:20.439Z,1011.35
2018-04-23T00:56:47.848Z,1011.36
2018-04-23T00:58:15.160Z,1011.36
2018-04-23T00:59:42.673Z,1011.35
2018-04-23T01:01:10.049Z,1011.39
2018-04-23T01:02:37.440Z,1011.47
2018-04-23T01:04:04.828Z,1011.50
2018-04-23T01:05:32.391Z,1011.52
2018-04-23T01:06:59.817Z,1011.44
2018-04-23T01:08:27.277Z,1011.49
2018-04-23T01:09:54.823Z,1011.50
2018-04-23T01:11:22.316Z,1011.53
2018-04-23T01:12:49.429Z,1011.48
2018-04-23T01:14:16.778Z,1011.45
2018-04-23T01:15:44.336Z,1011.48
2018-04-23T01:17:11.990Z,1011.48
2018-04-23T01:18:39.063Z,1011.42
2018-04-23T01:20:06.267Z,1011.42
2018-04-23T01:21:33.584Z,1011.42
2018-04-23T01:23:01.120Z,1011.48
2018-04-23T01:24:28.547Z,1011.47
2018-04-23T01:25:55.942Z,1011.42
2018-04-23T01:27:23.492Z,1011.41
2018-04-23T01:28:50.668Z,1011.39
2018-04-23T01:30:18.085Z,1011.41
2018-04-23T01:31:45.454Z,1011.45
2018-04-23T01:33:12.823Z,1011.45
2018-04-23T01:34:40.285Z,1011.43
2018-04-23T01:36:07.670Z,1011.43
2018-04-23T01:37:35.140Z,1011.44
2018-04-23T01:39:02.474Z,1011.41
2018-04-23T01:40:29.796Z,1011.34
2018-04-23T01:41:57.176Z,1011.28
2018-04-23T01:43:24.572Z,1011.26
2018-04-23T01:44:52.023Z,1011.21
2018-04-23T01:46:19.514Z,1011.15
2018-04-23T01:47:46.989Z,1011.11
2018-04-23T01:49:14.486Z,1011.06
2018-04-23T01:50:41.519Z,1010.99
2018-04-23T01:52:08.951Z,1010.92
2018-04-23T01:53:36.290Z,1010.96
2018-04-23T01:55:03.733Z,1011.02
2018-04-23T01:56:30.921Z,1011.03
2018-04-23T01:57:58.501Z,1010.97
2018-04-23T01:59:25.838Z,1010.98
2018-04-23T02:00:53.435Z,1010.97
2018-04-23T02:02:20.796Z,1010.96
2018-04-23T02:03:48.077Z,1010.99
2018-04-23T02:05:15.293Z,1011.02
2018-04-23T02:06:42.499Z,1010.99
2018-04-23T02:08:09.728Z,1011.00
2018-04-23T02:09:37.100Z,1010.94
2018-04-23T02:11:04.524Z,1010.80
2018-04-23T02:12:31.734Z,1010.76
2018-04-23T02:13:58.994Z,1010.73
2018-04-23T02:15:26.146Z,1010.76
2018-04-23T02:16:53.436Z,1010.80
2018-04-23T02:18:20.868Z,1010.86
2018-04-23T02:19:48.376Z,1010.89
2018-04-23T02:21:15.565Z,1010.91
2018-04-23T02:22:42.736Z,1010.92
2018-04-23T02:24:10.267Z,1010.96
2018-04-23T02:25:37.645Z,1010.96
2018-04-23T02:27:05.127Z,1011.00
2018-04-23T02:28:32.546Z,1010.98
2018-04-23T02:30:00.011Z,1011.02
2018-04-23T02:31:27.525Z,1011.04
2018-04-23T02:32:54.929Z,1011.07
2018-04-23T02:34:22.390Z,1011.11
2018-04-23T02:35:49.800Z,1011.12
2018-04-23T02:37:17.097Z,1011.13
2018-04-23T02:38:44.392Z,1011.08
2018-04-23T02:40:11.601Z,1011.10
2018-04-23T02:41:39.117Z,1011.13
2018-04-23T02:43:06.692Z,1011.13
2018-04-23T02:44:34.000Z,1011.15
2018-04-23T02:46:01.378Z,1011.13
2018-04-23T02:47:28.688Z,1011.11
2018-04-23T02:48:56.146Z,1011.10
2018-04-23T02:50:23.609Z,1011.10
2018-04-23T02:51:50.887Z,1011.08
2018-04-23T02:53:18.217Z,1011.12
2018-04-23T02:54:45.699Z,1011.09
2018-04-23T02:56:13.083Z,1011.06
2018-04-23T02:57:40.438Z,1011.02
2018-04-23T02:59:07.980Z,1010.98
2018-04-23T03:00:35.418Z,1010.96
2018-04-23T03:02:02.663Z,1010.92
2018-04-23T03:03:30.042Z,1010.90
2018-04-23T03:04:57.448Z,1010.88
2018-04-23T03:06:24.798Z,1010.88
2018-04-23T03:07:52.175Z,1010.93
2018-04-23T03:09:19.408Z,1010.92
2018-04-23T03:10:46.707Z,1010.95
2018-04-23T03:12:14.040Z,1010.98
2018-04-23T03:13:41.381Z,1011.00
2018-04-23T03:15:08.282Z,1011.02
2018-04-23T03:16:35.202Z,1010.99
2018-04-23T03:18:02.569Z,1010.97
2018-04-23T03:19:30.040Z,1010.93
2018-04-23T03:20:57.102Z,1010.91
2018-04-23T03:22:24.521Z,1010.90
2018-04-23T03:23:51.597Z,1010.91
2018-04-23T03:25:19.006Z,1010.92
2018-04-23T03:26:46.318Z,1010.94
2018-04-23T03:28:13.848Z,1010.99
2018-04-23T03:29:41.156Z,1011.01
2018-04-23T03:31:08.701Z,1011.04
2018-04-23T03:32:36.288Z,1011.04
2018-04-23T03:34:03.349Z,1011.04
2018-04-23T03:35:30.451Z,1011.01
2018-04-23T03:36:57.729Z,1011.02
2018-04-23T03:38:25.845Z,1010.97
2018-04-23T03:39:52.282Z,1010.96
2018-04-23T03:41:19.648Z,1010.98
2018-04-23T03:42:47.033Z,1011.03
2018-04-23T03:44:14.071Z,1011.05
2018-04-23T03:45:41.574Z,1011.04
2018-04-23T03:47:09.171Z,1011.02
2018-04-23T03:48:36.558Z,1011.00
2018-04-23T03:50:04.122Z,1011.05
2018-04-23T03:51:30.865Z,1011.09
2018-04-23T03:52:58.221Z,1011.11
2018-04-23T03:54:25.831Z,1011.14
2018-04-23T03:55:52.991Z,1011.17
2018-04-23T03:57:20.173Z,1011.17
2018-04-23T03:58:47.670Z,1011.10
2018-04-23T04:00:14.930Z,1011.04
2018-04-23T04:01:42.446Z,1011.04
2018-04-23T04:03:09.605Z,1011.13
2018-04-23T04:04:37.058Z,1011.14
2018-04-23T04:06:04.483Z,1011.18
2018-04-23T04:07:31.996Z,1011.21
2018-04-23T04:08:59.414Z,1011.29
2018-04-23T04:10:26.901Z,1011.32
2018-04-23T04:11:54.398Z,1011.33
2018-04-23T04:13:21.845Z,1011.32
2018-04-23T04:14:57.216Z,1011.31
2018-04-23T04:16:16.206Z,1011.28
2018-04-23T04:17:43.320Z,1011.27
2018-04-23T04:19:10.715Z,1011.23
2018-04-23T04:20:38.268Z,1011.20
2018-04-23T04:22:05.655Z,1011.23
2018-04-23T04:23:32.776Z,1011.24
2018-04-23T04:25:00.231Z,1011.25
2018-04-23T04:26:27.506Z,1011.24
2018-04-23T04:27:54.419Z,1011.24
2018-04-23T04:29:21.762Z,1011.20
2018-04-23T04:30:49.326Z,1011.18
2018-04-23T04:32:16.726Z,1011.19
2018-04-23T04:33:44.032Z,1011.20
2018-04-23T04:35:11.430Z,1011.18
2018-04-23T04:36:38.784Z,1011.17
2018-04-23T04:38:06.133Z,1011.17
2018-04-23T04:39:33.609Z,1011.17
2018-04-23T04:41:01.138Z,1011.19
2018-04-23T04:42:28.640Z,1011.22
2018-04-23T04:43:56.339Z,1011.25
2018-04-23T04:45:23.423Z,1011.26
2018-04-23T04:46:50.297Z,1011.28
2018-04-23T04:48:17.675Z,1011.29
2018-04-23T04:49:45.046Z,1011.32
2018-04-23T04:51:12.208Z,1011.32
2018-04-23T04:52:39.754Z,1011.32
2018-04-23T04:54:07.239Z,1011.34
2018-04-23T04:55:34.656Z,1011.41
2018-04-23T04:57:02.159Z,1011.41
2018-04-23T04:58:29.646Z,1011.39
2018-04-23T04:59:57.018Z,1011.40
2018-04-23T05:01:24.509Z,1011.41
2018-04-23T05:02:51.858Z,1011.37
2018-04-23T05:04:19.131Z,1011.33
2018-04-23T05:05:46.477Z,1011.30
2018-04-23T05:07:13.821Z,1011.27
2018-04-23T05:08:40.937Z,1011.28
2018-04-23T05:10:08.527Z,1011.32
2018-04-23T05:11:36.100Z,1011.43
2018-04-23T05:13:03.136Z,1011.49
2018-04-23T05:14:30.784Z,1011.47
2018-04-23T05:15:58.303Z,1011.44
2018-04-23T05:17:25.595Z,1011.45
2018-04-23T05:18:52.970Z,1011.45
2018-04-23T05:20:20.270Z,1011.41
2018-04-23T05:21:47.629Z,1011.41
2018-04-23T05:23:15.003Z,1011.41
2018-04-23T05:24:42.433Z,1011.38
2018-04-23T05:26:09.711Z,1011.38
2018-04-23T05:27:37.067Z,1011.39
2018-04-23T05:29:03.751Z,1011.34
2018-04-23T05:30:31.179Z,1011.35
2018-04-23T05:31:58.668Z,1011.38
2018-04-23T05:33:26.219Z,1011.40
2018-04-23T05:34:53.468Z,1011.39
2018-04-23T05:36:20.730Z,1011.35
2018-04-23T05:37:47.902Z,1011.32
2018-04-23T05:39:15.103Z,1011.37
2018-04-23T05:40:42.441Z,1011.38
2018-04-23T05:42:10.022Z,1011.39
2018-04-23T05:43:37.269Z,1011.42
2018-04-23T05:45:04.619Z,1011.44
2018-04-23T05:46:32.033Z,1011.42
2018-04-23T05:47:59.663Z,1011.41
2018-04-23T05:49:26.766Z,1011.40
2018-04-23T05:50:54.171Z,1011.37
2018-04-23T05:52:21.553Z,1011.35
2018-04-23T05:53:48.863Z,1011.39
2018-04-23T05:55:15.905Z,1011.35
2018-04-23T05:56:42.946Z,1011.33
2018-04-23T05:58:10.408Z,1011.31
2018-04-23T05:59:37.847Z,1011.36
2018-04-23T06:01:04.800Z,1011.38
2018-04-23T06:02:31.611Z,1011.39
2018-04-23T06:03:59.136Z,1011.40
2018-04-23T06:05:26.331Z,1011.38
2018-04-23T06:06:53.833Z,1011.40
2018-04-23T06:08:21.192Z,1011.42
2018-04-23T06:09:48.320Z,1011.47
2018-04-23T06:11:15.669Z,1011.42
2018-04-23T06:12:43.069Z,1011.45
2018-04-23T06:14:10.891Z,1011.43
2018-04-23T06:15:38.272Z,1011.42
2018-04-23T06:17:05.579Z,1011.40
2018-04-23T06:18:32.853Z,1011.38
2018-04-23T06:20:00.065Z,1011.33
2018-04-23T06:21:27.316Z,1011.36
2018-04-23T06:22:54.734Z,1011.38
2018-04-23T06:24:22.116Z,1011.39
2018-04-23T06:25:49.352Z,1011.40
2018-04-23T06:27:16.656Z,1011.39
2018-04-23T06:28:43.989Z,1011.40
2018-04-23T06:30:11.380Z,1011.38
2018-04-23T06:31:38.605Z,1011.39
2018-04-23T06:33:06.101Z,1011.41
2018-04-23T06:34:33.468Z,1011.42
2018-04-23T06:36:01.929Z,1011.42
2018-04-23T06:37:28.363Z,1011.42
2018-04-23T06:38:55.554Z,1011.43
2018-04-23T06:40:22.916Z,1011.41
2018-04-23T06:41:50.238Z,1011.45
2018-04-23T06:43:17.510Z,1011.43
2018-04-23T06:44:44.719Z,1011.41
2018-04-23T06:46:12.002Z,1011.39
2018-04-23T06:47:39.402Z,1011.39
2018-04-23T06:49:06.617Z,1011.41
2018-04-23T06:50:34.214Z,1011.47
2018-04-23T06:52:01.303Z,1011.47
2018-04-23T06:53:28.618Z,1011.45
2018-04-23T06:54:56.364Z,1011.47
2018-04-23T06:56:23.600Z,1011.48
2018-04-23T06:57:50.776Z,1011.50
2018-04-23T06:59:18.113Z,1011.52
2018-04-23T07:00:45.427Z,1011.51
2018-04-23T07:02:12.695Z,1011.51
2018-04-23T07:03:40.230Z,1011.52
2018-04-23T07:05:07.451Z,1011.50
2018-04-23T07:06:34.902Z,1011.49
2018-04-23T07:08:02.443Z,1011.46
2018-04-23T07:09:29.855Z,1011.48
2018-04-23T07:10:57.244Z,1011.47
2018-04-23T07:12:24.580Z,1011.44
2018-04-23T07:13:51.773Z,1011.49
2018-04-23T07:15:19.293Z,1011.53
2018-04-23T07:16:46.477Z,1011.56
2018-04-23T07:18:13.826Z,1011.55
2018-04-23T07:19:41.246Z,1011.57
2018-04-23T07:21:08.681Z,1011.58
2018-04-23T07:22:36.285Z,1011.56
2018-04-23T07:24:03.628Z,1011.57
2018-04-23T07:25:31.058Z,1011.50
2018-04-23T07:26:58.513Z,1011.53
2018-04-23T07:28:25.687Z,1011.48
2018-04-23T07:29:53.159Z,1011.44
2018-04-23T07:31:20.686Z,1011.40
2018-04-23T07:32:48.112Z,1011.35
2018-04-23T07:34:15.467Z,1011.38
2018-04-23T07:35:42.549Z,1011.39
2018-04-23T07:37:09.686Z,1011.37
2018-04-23T07:38:36.999Z,1011.40
2018-04-23T07:40:04.442Z,1011.40
2018-04-23T07:41:31.835Z,1011.42
2018-04-23T07:42:59.364Z,1011.43
2018-04-23T07:44:28.676Z,1011.44
2018-04-23T07:45:54.395Z,1011.48
2018-04-23T07:47:21.751Z,1011.51
2018-04-23T07:48:49.087Z,1011.51
2018-04-23T07:50:16.595Z,1011.50
2018-04-23T07:51:43.887Z,1011.50
2018-04-23T07:53:11.295Z,1011.49
2018-04-23T07:54:38.457Z,1011.53
2018-04-23T07:56:06.057Z,1011.57
2018-04-23T07:57:33.352Z,1011.59
2018-04-23T07:59:00.746Z,1011.60
2018-04-23T08:00:28.328Z,1011.65
2018-04-23T08:01:55.272Z,1011.67
2018-04-23T08:03:22.491Z,1011.68
2018-04-23T08:04:50.001Z,1011.75
2018-04-23T08:06:17.418Z,1011.77
2018-04-23T08:07:44.739Z,1011.73
2018-04-23T08:09:12.185Z,1011.74
2018-04-23T08:10:39.530Z,1011.76
2018-04-23T08:12:07.141Z,1011.77
2018-04-23T08:13:34.111Z,1011.86
2018-04-23T08:15:00.951Z,1011.86
2018-04-23T08:16:28.515Z,1011.89
2018-04-23T08:17:55.991Z,1011.92
2018-04-23T08:19:23.316Z,1011.91
2018-04-23T08:20:50.949Z,1011.92
2018-04-23T08:22:18.195Z,1011.96
2018-04-23T08:23:45.323Z,1011.95
2018-04-23T08:25:12.904Z,1012.00
2018-04-23T08:26:40.397Z,1012.02
2018-04-23T08:28:07.595Z,1012.06
2018-04-23T08:29:34.970Z,1012.04
2018-04-23T08:31:02.255Z,1012.02
2018-04-23T08:32:29.679Z,1012.03
2018-04-23T08:33:57.178Z,1012.04
2018-04-23T08:35:24.871Z,1012.01
2018-04-23T08:36:52.160Z,1011.99
2018-04-23T08:38:19.376Z,1012.02
2018-04-23T08:39:46.918Z,1012.08
2018-04-23T08:41:14.115Z,1012.10
2018-04-23T08:42:41.223Z,1012.14
2018-04-23T08:44:08.773Z,1012.08
2018-04-23T08:45:36.049Z,1012.10
2018-04-23T08:47:03.412Z,1012.12
2018-04-23T08:48:30.535Z,1012.15
2018-04-23T08:49:58.021Z,1012.19
2018-04-23T08:51:25.646Z,1012.21
2018-04-23T08:52:53.133Z,1012.23
2018-04-23T08:54:20.355Z,1012.24
2018-04-23T08:55:47.819Z,1012.25
2018-04-23T08:57:15.163Z,1012.27
2018-04-23T08:58:42.745Z,1012.30
2018-04-23T09:00:09.793Z,1012.31
2018-04-23T09:01:37.096Z,1012.32
2018-04-23T09:03:04.597Z,1012.34
2018-04-23T09:04:31.927Z,1012.32
2018-04-23T09:05:59.039Z,1012.32
2018-04-23T09:07:26.672Z,1012.35
2018-04-23T09:08:53.943Z,1012.36
2018-04-23T09:10:21.314Z,1012.35
2018-04-23T09:11:48.759Z,1012.40
2018-04-23T09:13:16.281Z,1012.39
2018-04-23T09:14:43.635Z,1012.44
2018-04-23T09:16:10.835Z,1012.47
2018-04-23T09:17:37.844Z,1012.46
2018-04-23T09:19:05.514Z,1012.46
2018-04-23T09:20:32.238Z,1012.47
2018-04-23T09:21:59.223Z,1012.49
2018-04-23T09:23:26.640Z,1012.53
2018-04-23T09:24:53.706Z,1012.59
2018-04-23T09:26:20.876Z,1012.57
2018-04-23T09:27:47.696Z,1012.57
2018-04-23T09:29:14.993Z,1012.62
2018-04-23T09:30:42.110Z,1012.65
2018-04-23T09:32:09.647Z,1012.66
2018-04-23T09:33:36.995Z,1012.68
2018-04-23T09:35:04.381Z,1012.63
2018-04-23T09:36:31.956Z,1012.65
2018-04-23T09:37:59.127Z,1012.63
2018-04-23T09:39:26.390Z,1012.66
2018-04-23T09:40:53.633Z,1012.64
2018-04-23T09:42:21.085Z,1012.65
2018-04-23T09:43:48.384Z,1012.65
2018-04-23T09:45:15.806Z,1012.63
2018-04-23T09:46:43.177Z,1012.67
2018-04-23T09:48:10.053Z,1012.69
2018-04-23T09:49:37.654Z,1012.69
2018-04-23T09:51:04.650Z,1012.68
2018-04-23T09:52:32.123Z,1012.66
2018-04-23T09:53:59.009Z,1012.66
2018-04-23T09:55:26.553Z,1012.67
2018-04-23T09:56:53.829Z,1012.69
2018-04-23T09:58:21.277Z,1012.74
2018-04-23T09:59:48.710Z,1012.73
2018-04-23T10:01:16.295Z,1012.72
2018-04-23T10:02:43.430Z,1012.74
2018-04-23T10:04:10.895Z,1012.76
2018-04-23T10:05:38.083Z,1012.80
2018-04-23T10:07:05.572Z,1012.78
2018-04-23T10:08:33.053Z,1012.82
2018-04-23T10:10:00.153Z,1012.84
2018-04-23T10:11:27.538Z,1012.84
2018-04-23T10:12:55.029Z,1012.85
2018-04-23T10:14:22.592Z,1012.86
2018-04-23T10:15:50.101Z,1012.89
2018-04-23T10:17:17.306Z,1012.90
2018-04-23T10:18:44.702Z,1012.92
2018-04-23T10:20:11.787Z,1012.96
2018-04-23T10:21:39.532Z,1012.96
2018-04-23T10:23:06.924Z,1012.94
2018-04-23T10:24:34.166Z,1012.99
2018-04-23T10:26:01.148Z,1013.01
2018-04-23T10:27:27.967Z,1013.03
2018-04-23T10:28:55.548Z,1013.02
2018-04-23T10:30:23.048Z,1013.02
2018-04-23T10:31:50.510Z,1013.12
2018-04-23T10:33:18.059Z,1013.12
2018-04-23T10:34:45.364Z,1013.18
2018-04-23T10:36:13.053Z,1013.19
2018-04-23T10:37:40.439Z,1013.21
2018-04-23T10:39:07.908Z,1013.22
2018-04-23T10:40:35.386Z,1013.22
2018-04-23T10:42:02.819Z,1013.26
2018-04-23T10:43:30.206Z,1013.27
2018-04-23T10:44:57.667Z,1013.35
2018-04-23T10:46:25.051Z,1013.31
2018-04-23T10:47:52.432Z,1013.28
2018-04-23T10:49:19.467Z,1013.29
2018-04-23T10:50:46.853Z,1013.25
2018-04-23T10:52:13.909Z,1013.30
2018-04-23T10:53:41.298Z,1013.31
2018-04-23T10:55:08.791Z,1013.29
2018-04-23T10:56:36.116Z,1013.33
2018-04-23T10:58:03.612Z,1013.32
2018-04-23T10:59:31.133Z,1013.28
2018-04-23T11:00:58.496Z,1013.26
2018-04-23T11:02:25.870Z,1013.34
2018-04-23T11:03:53.231Z,1013.38
2018-04-23T11:05:20.680Z,1013.35
2018-04-23T11:06:48.008Z,1013.36
2018-04-23T11:08:15.521Z,1013.39
2018-04-23T11:09:42.893Z,1013.36
2018-04-23T11:11:10.316Z,1013.41
2018-04-23T11:12:37.717Z,1013.40
2018-04-23T11:14:05.266Z,1013.39
2018-04-23T11:15:32.653Z,1013.41
2018-04-23T11:16:59.883Z,1013.46
2018-04-23T11:18:35.459Z,1013.45
2018-04-23T11:19:54.929Z,1013.47
2018-04-23T11:21:22.000Z,1013.50
2018-04-23T11:22:49.385Z,1013.46
2018-04-23T11:24:16.825Z,1013.43
2018-04-23T11:25:43.657Z,1013.43
2018-04-23T11:27:11.071Z,1013.47
2018-04-23T11:28:38.691Z,1013.49
2018-04-23T11:30:06.232Z,1013.46
2018-04-23T11:31:33.773Z,1013.48
2018-04-23T11:33:01.240Z,1013.46
2018-04-23T11:34:28.744Z,1013.51
2018-04-23T11:35:56.188Z,1013.52
2018-04-23T11:37:23.695Z,1013.53
2018-04-23T11:38:50.774Z,1013.49
2018-04-23T11:40:18.369Z,1013.54
2018-04-23T11:41:45.652Z,1013.47
2018-04-23T11:43:12.976Z,1013.52
2018-04-23T11:44:40.597Z,1013.50
2018-04-23T11:46:08.096Z,1013.47
2018-04-23T11:47:35.549Z,1013.50
2018-04-23T11:49:03.049Z,1013.50
2018-04-23T11:50:30.332Z,1013.57
2018-04-23T11:51:57.808Z,1013.53
2018-04-23T11:53:25.176Z,1013.52
2018-04-23T11:54:52.757Z,1013.53
2018-04-23T11:56:20.142Z,1013.54
2018-04-23T11:57:47.617Z,1013.56
2018-04-23T11:59:14.701Z,1013.57
2018-04-23T12:00:42.216Z,1013.54
2018-04-23T12:02:12.813Z,1013.58
2018-04-23T12:03:37.396Z,1013.54
2018-04-23T12:05:04.850Z,1013.51
2018-04-23T12:06:32.535Z,1013.53
2018-04-23T12:08:00.057Z,1013.51
2018-04-23T12:09:27.740Z,1013.54
2018-04-23T12:10:54.821Z,1013.57
2018-04-23T12:12:22.240Z,1013.56
2018-04-23T12:13:49.608Z,1013.59
2018-04-23T12:15:17.017Z,1013.58
2018-04-23T12:16:44.217Z,1013.61
2018-04-23T12:18:11.680Z,1013.58
2018-04-23T12:19:39.366Z,1013.62
2018-04-23T12:21:06.518Z,1013.61
2018-04-23T12:22:34.013Z,1013.68
2018-04-23T12:24:01.502Z,1013.70
2018-04-23T12:25:28.888Z,1013.68
2018-04-23T12:26:56.179Z,1013.70
2018-04-23T12:28:23.242Z,1013.73
2018-04-23T12:29:50.882Z,1013.69
2018-04-23T12:31:18.247Z,1013.64
2018-04-23T12:32:45.350Z,1013.67
2018-04-23T12:34:12.703Z,1013.71
2018-04-23T12:35:40.194Z,1013.66
2018-04-23T12:37:07.825Z,1013.68
2018-04-23T12:38:35.410Z,1013.67
2018-04-23T12:40:02.726Z,1013.63
2018-04-23T12:41:30.333Z,1013.63
2018-04-23T12:42:57.491Z,1013.71
2018-04-23T12:44:24.756Z,1013.74
2018-04-23T12:45:52.172Z,1013.68
2018-04-23T12:47:19.506Z,1013.78
2018-04-23T12:48:47.085Z,1013.78
2018-04-23T12:50:14.429Z,1013.76
2018-04-23T12:51:42.104Z,1013.83
2018-04-23T12:53:09.572Z,1013.80
2018-04-23T12:54:36.989Z,1013.85
2018-04-23T12:56:04.570Z,1013.89
2018-04-23T12:57:31.988Z,1013.95
2018-04-23T12:58:59.481Z,1013.97
2018-04-23T13:00:26.872Z,1013.95
2018-04-23T13:01:54.137Z,1013.94
2018-04-23T13:03:21.528Z,1013.91
2018-04-23T13:04:49.161Z,1013.89
2018-04-23T13:06:16.305Z,1013.88
2018-04-23T13:07:43.688Z,1013.85
2018-04-23T13:09:11.101Z,1013.87
2018-04-23T13:10:38.526Z,1013.86
2018-04-23T13:12:06.084Z,1013.83
2018-04-23T13:13:33.303Z,1013.89
2018-04-23T13:15:00.676Z,1013.95
2018-04-23T13:16:27.968Z,1013.96
2018-04-23T13:17:55.032Z,1013.89
2018-04-23T13:19:22.298Z,1013.91
2018-04-23T13:20:49.777Z,1013.91
2018-04-23T13:22:17.251Z,1013.89
2018-04-23T13:23:44.457Z,1013.90
2018-04-23T13:25:12.018Z,1013.93
2018-04-23T13:26:39.451Z,1013.91
2018-04-23T13:28:07.017Z,1013.99
2018-04-23T13:29:34.613Z,1014.01
2018-04-23T13:31:02.132Z,1013.98
2018-04-23T13:32:29.674Z,1014.01
2018-04-23T13:33:57.082Z,1014.01
2018-04-23T13:35:24.668Z,1014.01
2018-04-23T13:36:52.059Z,1014.05
2018-04-23T13:38:19.479Z,1014.04
2018-04-23T13:39:46.749Z,1014.01
2018-04-23T13:41:14.289Z,1014.00
2018-04-23T13:42:41.655Z,1014.01
2018-04-23T13:44:09.244Z,1014.01
2018-04-23T13:45:36.663Z,1014.00
2018-04-23T13:47:04.220Z,1013.97
2018-04-23T13:48:31.589Z,1013.99
2018-04-23T13:49:59.232Z,1013.96
2018-04-23T13:51:26.605Z,1014.02
2018-04-23T13:52:54.186Z,1014.02
2018-04-23T13:54:21.674Z,1014.00
2018-04-23T13:55:49.143Z,1014.03
2018-04-23T13:57:16.554Z,1014.03
2018-04-23T13:58:44.105Z,1013.98
2018-04-23T14:00:11.715Z,1014.00
2018-04-23T14:01:39.255Z,1013.99
2018-04-23T14:03:06.674Z,1014.01
2018-04-23T14:04:33.960Z,1014.04
2018-04-23T14:06:01.586Z,1014.05
2018-04-23T14:07:28.881Z,1014.07
2018-04-23T14:08:56.076Z,1014.05
2018-04-23T14:10:23.406Z,1014.05
2018-04-23T14:11:50.710Z,1014.02
2018-04-23T14:13:18.101Z,1014.07
2018-04-23T14:14:45.508Z,1014.03
2018-04-23T14:16:13.031Z,1014.03
2018-04-23T14:17:40.475Z,1014.05
2018-04-23T14:19:07.996Z,1014.07
2018-04-23T14:20:35.378Z,1014.05
2018-04-23T14:22:02.883Z,1014.08
2018-04-23T14:23:30.417Z,1014.07
2018-04-23T14:24:57.648Z,1014.04
2018-04-23T14:26:25.209Z,1014.07
2018-04-23T14:27:52.565Z,1014.05
2018-04-23T14:29:19.898Z,1014.05
2018-04-23T14:30:47.175Z,1014.10
2018-04-23T14:32:14.575Z,1014.07
2018-04-23T14:33:42.152Z,1014.14
2018-04-23T14:35:09.407Z,1014.09
2018-04-23T14:36:36.851Z,1014.06
2018-04-23T14:38:04.415Z,1014.12
2018-04-23T14:39:31.761Z,1014.10
2018-04-23T14:40:59.014Z,1014.18
2018-04-23T14:42:26.393Z,1014.17
2018-04-23T14:43:53.906Z,1014.23
2018-04-23T14:45:21.260Z,1014.22
2018-04-23T14:46:48.647Z,1014.24
2018-04-23T14:48:16.183Z,1014.24
2018-04-23T14:49:43.582Z,1014.29
2018-04-23T14:51:10.933Z,1014.26
2018-04-23T14:52:38.274Z,1014.31
2018-04-23T14:54:05.846Z,1014.35
2018-04-23T14:55:33.324Z,1014.34
2018-04-23T14:57:00.638Z,1014.34
2018-04-23T14:58:27.999Z,1014.34
2018-04-23T14:59:55.561Z,1014.36
2018-04-23T15:01:22.859Z,1014.37
2018-04-23T15:02:50.250Z,1014.36
2018-04-23T15:04:17.552Z,1014.37
2018-04-23T15:05:44.776Z,1014.44
2018-04-23T15:07:12.280Z,1014.45
2018-04-23T15:08:39.901Z,1014.49
2018-04-23T15:10:06.949Z,1014.46
2018-04-23T15:11:34.419Z,1014.47
2018-04-23T15:13:01.823Z,1014.48
2018-04-23T15:14:29.412Z,1014.48
2018-04-23T15:15:56.702Z,1014.50
2018-04-23T15:17:24.127Z,1014.51
2018-04-23T15:18:51.408Z,1014.57
2018-04-23T15:20:18.837Z,1014.54
2018-04-23T15:21:46.050Z,1014.51
2018-04-23T15:23:13.370Z,1014.55
2018-04-23T15:24:40.820Z,1014.58
2018-04-23T15:26:07.971Z,1014.59
2018-04-23T15:27:35.601Z,1014.56
2018-04-23T15:29:03.057Z,1014.56
2018-04-23T15:30:30.691Z,1014.53
2018-04-23T15:31:58.282Z,1014.54
2018-04-23T15:33:25.949Z,1014.55
2018-04-23T15:34:53.002Z,1014.60
2018-04-23T15:36:20.512Z,1014.59
2018-04-23T15:37:48.057Z,1014.61
2018-04-23T15:39:15.327Z,1014.60
2018-04-23T15:40:42.923Z,1014.65
2018-04-23T15:42:10.196Z,1014.63
2018-04-23T15:43:37.577Z,1014.60
2018-04-23T15:45:05.064Z,1014.60
2018-04-23T15:46:32.448Z,1014.59
2018-04-23T15:47:59.972Z,1014.58
2018-04-23T15:49:27.541Z,1014.59
2018-04-23T15:50:54.960Z,1014.54
2018-04-23T15:52:22.523Z,1014.57
2018-04-23T15:53:49.894Z,1014.57
2018-04-23T15:55:17.342Z,1014.55
2018-04-23T15:56:44.680Z,1014.59
2018-04-23T15:58:12.090Z,1014.64
2018-04-23T15:59:39.601Z,1014.58
2018-04-23T16:01:06.981Z,1014.60
2018-04-23T16:02:34.490Z,1014.61
2018-04-23T16:04:01.952Z,1014.59
2018-04-23T16:05:29.482Z,1014.60
2018-04-23T16:06:56.775Z,1014.57
2018-04-23T16:08:24.348Z,1014.59
2018-04-23T16:09:51.770Z,1014.59
2018-04-23T16:11:19.272Z,1014.63
2018-04-23T16:12:46.585Z,1014.59
2018-04-23T16:14:14.038Z,1014.65
2018-04-23T16:15:41.455Z,1014.64
2018-04-23T16:17:08.740Z,1014.64
2018-04-23T16:18:36.245Z,1014.64
2018-04-23T16:20:03.597Z,1014.67
2018-04-23T16:21:31.144Z,1014.64
2018-04-23T16:22:58.305Z,1014.67
2018-04-23T16:24:25.779Z,1014.66
2018-04-23T16:25:53.325Z,1014.69
2018-04-23T16:27:20.561Z,1014.69
2018-04-23T16:28:47.917Z,1014.71
2018-04-23T16:30:15.493Z,1014.77
2018-04-23T16:31:43.193Z,1014.77
2018-04-23T16:33:10.308Z,1014.79
2018-04-23T16:34:37.920Z,1014.76
2018-04-23T16:36:04.925Z,1014.77
2018-04-23T16:37:32.209Z,1014.82
2018-04-23T16:38:59.657Z,1014.83
2018-04-23T16:40:27.293Z,1014.86
2018-04-23T16:41:54.768Z,1014.86
2018-04-23T16:43:22.231Z,1014.83
2018-04-23T16:44:50.544Z,1014.82
2018-04-23T16:46:17.082Z,1014.87
2018-04-23T16:47:44.144Z,1014.91
2018-04-23T16:49:11.613Z,1014.95
2018-04-23T16:50:38.936Z,1014.94
2018-04-23T16:52:06.298Z,1014.95
2018-04-23T16:53:33.615Z,1014.92
2018-04-23T16:55:01.129Z,1014.90
2018-04-23T16:56:28.541Z,1014.89
2018-04-23T16:57:55.915Z,1014.92
2018-04-23T16:59:23.207Z,1014.92
2018-04-23T17:00:50.564Z,1014.93
2018-04-23T17:02:18.031Z,1014.90
2018-04-23T17:03:45.319Z,1014.90
2018-04-23T17:05:12.322Z,1014.91
2018-04-23T17:06:39.700Z,1014.97
2018-04-23T17:08:07.268Z,1014.97
2018-04-23T17:09:34.760Z,1014.94
2018-04-23T17:11:01.919Z,1014.97
2018-04-23T17:12:29.413Z,1014.97
2018-04-23T17:13:56.854Z,1014.99
2018-04-23T17:15:23.653Z,1015.03
2018-04-23T17:16:51.005Z,1015.00
2018-04-23T17:18:18.353Z,1015.03
2018-04-23T17:19:45.796Z,1015.03
2018-04-23T17:21:12.886Z,1014.99
2018-04-23T17:22:40.044Z,1015.02
2018-04-23T17:24:07.343Z,1015.03
2018-04-23T17:25:34.655Z,1015.06
2018-04-23T17:27:01.740Z,1015.06
2018-04-23T17:28:29.254Z,1015.07
2018-04-23T17:29:56.594Z,1015.07
2018-04-23T17:31:24.060Z,1015.08
2018-04-23T17:32:51.432Z,1015.13
2018-04-23T17:34:18.929Z,1015.17
2018-04-23T17:35:46.213Z,1015.18